createdAt,value
2019-01-30T00:02:16.218Z,-1.00
2019-01-30T00:05:24.479Z,-1.00
2019-01-30T00:08:13.497Z,-1.00
2019-01-30T00:14:03.759Z,-1.10
2019-01-30T00:17:12.117Z,-1.20
2019-01-30T00:22:44.107Z,-1.20
2019-01-30T00:25:33.034Z,-1.30
2019-01-30T00:28:21.959Z,-1.30
2019-01-30T00:31:13.116Z,-1.30
2019-01-30T00:34:01.988Z,-1.30
2019-01-30T00:36:50.860Z,-1.30
2019-01-30T00:39:57.711Z,-1.30
2019-01-30T00:42:46.666Z,-1.20
2019-01-30T00:45:35.502Z,-1.20
2019-01-30T00:48:25.818Z,-1.20
2019-01-30T00:55:15.899Z,-1.20
2019-01-30T01:01:54.590Z,-1.20
2019-01-30T01:08:20.691Z,-1.20
2019-01-30T01:11:09.610Z,-1.30
2019-01-30T01:13:58.562Z,-1.30
2019-01-30T01:16:47.471Z,-1.30
2019-01-30T01:19:55.828Z,-1.30
2019-01-30T01:22:38.778Z,-1.30
2019-01-30T01:25:27.722Z,-1.30
2019-01-30T01:28:18.281Z,-1.30
2019-01-30T01:31:26.698Z,-1.30
2019-01-30T01:34:15.718Z,-1.30
2019-01-30T01:37:04.702Z,-1.40
2019-01-30T01:39:53.640Z,-1.40
2019-01-30T01:42:42.488Z,-1.40
2019-01-30T01:45:31.355Z,-1.30
2019-01-30T01:48:20.283Z,-1.40
2019-01-30T01:51:28.663Z,-1.50
2019-01-30T01:54:17.577Z,-1.50
2019-01-30T01:57:25.877Z,-1.50
2019-01-30T02:00:35.857Z,-1.60
2019-01-30T02:03:44.391Z,-1.60
2019-01-30T02:06:55.691Z,-1.60
2019-01-30T02:13:15.223Z,-1.60
2019-01-30T02:16:23.602Z,-1.60
2019-01-30T02:19:12.520Z,-1.70
2019-01-30T02:22:03.057Z,-1.60
2019-01-30T02:24:47.495Z,-1.60
2019-01-30T02:27:36.440Z,-1.60
2019-01-30T02:33:14.915Z,-1.60
2019-01-30T02:36:03.823Z,-1.70
2019-01-30T02:38:52.755Z,-1.70
2019-01-30T02:41:41.671Z,-1.70
2019-01-30T02:44:30.608Z,-1.60
2019-01-30T02:47:19.515Z,-1.60
2019-01-30T02:50:27.803Z,-1.60
2019-01-30T02:53:16.731Z,-1.60
2019-01-30T02:56:05.722Z,-1.60
2019-01-30T02:58:54.610Z,-1.50
2019-01-30T03:02:02.729Z,-1.90
2019-01-30T03:04:51.780Z,-1.50
2019-01-30T03:07:40.824Z,-1.50
2019-01-30T03:10:29.775Z,-1.50
2019-01-30T03:13:18.635Z,-1.50
2019-01-30T03:16:26.951Z,-1.50
2019-01-30T03:19:15.961Z,-1.50
2019-01-30T03:22:17.741Z,-1.50
2019-01-30T03:25:27.323Z,-1.50
2019-01-30T03:28:35.592Z,-1.50
2019-01-30T03:31:24.465Z,-1.60
2019-01-30T03:34:13.390Z,-1.60
2019-01-30T03:37:03.826Z,-1.60
2019-01-30T03:39:54.426Z,-1.50
2019-01-30T03:42:43.442Z,-1.50
2019-01-30T03:45:32.381Z,-1.50
2019-01-30T03:48:21.295Z,-1.60
2019-01-30T03:51:29.590Z,-1.60
2019-01-30T03:54:18.578Z,-1.50
2019-01-30T03:57:07.506Z,-1.50
2019-01-30T03:59:56.350Z,-1.50
2019-01-30T04:03:04.711Z,-1.50
2019-01-30T04:05:53.602Z,-1.60
2019-01-30T04:08:42.514Z,-1.60
2019-01-30T04:11:50.802Z,-1.60
2019-01-30T04:14:39.701Z,-1.60
2019-01-30T04:17:28.630Z,-1.50
2019-01-30T04:20:29.555Z,-1.60
2019-01-30T04:23:15.476Z,-1.60
2019-01-30T04:26:04.318Z,-1.60
2019-01-30T04:28:53.185Z,-1.60
2019-01-30T04:32:01.507Z,-1.50
2019-01-30T04:34:50.383Z,-1.50
2019-01-30T04:38:23.406Z,-1.60
2019-01-30T04:41:12.328Z,-1.50
2019-01-30T04:52:00.823Z,-1.60
2019-01-30T04:54:49.700Z,-1.60
2019-01-30T04:57:38.608Z,-1.60
2019-01-30T05:00:27.627Z,-1.60
2019-01-30T05:03:16.800Z,-1.60
2019-01-30T05:06:05.707Z,-1.60
2019-01-30T05:09:12.395Z,-1.60
2019-01-30T05:12:01.315Z,-1.70
2019-01-30T05:14:49.429Z,-1.60
2019-01-30T05:17:56.816Z,-1.60
2019-01-30T05:20:44.834Z,-1.60
2019-01-30T05:23:26.100Z,-1.60
2019-01-30T05:26:07.800Z,-1.70
2019-01-30T05:28:48.931Z,-1.70
2019-01-30T05:31:31.019Z,-1.70
2019-01-30T05:34:12.804Z,-1.70
2019-01-30T05:36:54.725Z,-1.70
2019-01-30T05:39:34.386Z,-1.60
2019-01-30T05:42:22.645Z,-1.60
2019-01-30T05:45:10.587Z,-1.60
2019-01-30T05:47:58.622Z,-1.60
2019-01-30T05:50:48.286Z,-1.50
2019-01-30T05:53:36.419Z,-1.50
2019-01-30T05:56:05.232Z,-1.50
2019-01-30T05:58:33.888Z,-1.40
2019-01-30T06:01:02.731Z,-1.40
2019-01-30T06:03:31.462Z,-1.40
2019-01-30T06:06:00.147Z,-1.40
2019-01-30T06:08:48.095Z,-1.40
2019-01-30T06:11:36.051Z,-1.40
2019-01-30T06:14:23.998Z,-1.30
2019-01-30T06:17:34.482Z,-1.30
2019-01-30T06:23:41.706Z,-1.30
2019-01-30T06:26:23.062Z,-1.20
2019-01-30T06:29:04.928Z,-1.20
2019-01-30T06:31:46.635Z,-1.30
2019-01-30T06:34:27.907Z,-1.20
2019-01-30T06:37:09.037Z,-1.20
2019-01-30T06:43:20.689Z,-1.20
2019-01-30T06:46:01.827Z,-1.20
2019-01-30T06:48:41.625Z,-1.20
2019-01-30T06:54:38.309Z,-1.20
2019-01-30T06:57:47.465Z,-1.20
2019-01-30T07:00:34.938Z,-1.20
2019-01-30T07:03:22.999Z,-1.10
2019-01-30T07:06:10.992Z,-1.10
2019-01-30T07:08:59.004Z,-1.10
2019-01-30T07:11:47.012Z,-1.10
2019-01-30T07:14:35.103Z,-1.10
2019-01-30T07:17:42.482Z,-1.10
2019-01-30T07:20:31.280Z,-1.20
2019-01-30T07:23:32.686Z,-1.20
2019-01-30T07:26:13.911Z,-1.10
2019-01-30T07:28:55.812Z,-1.10
2019-01-30T07:31:36.839Z,-1.10
2019-01-30T07:37:30.919Z,-1.10
2019-01-30T07:40:12.250Z,-1.00
2019-01-30T07:42:55.447Z,-1.00
2019-01-30T07:45:37.418Z,-0.90
2019-01-30T07:48:18.533Z,-0.90
2019-01-30T07:51:00.567Z,-0.80
2019-01-30T07:56:28.938Z,-0.80
2019-01-30T07:59:07.859Z,-0.70
2019-01-30T08:01:55.887Z,-0.70
2019-01-30T08:04:43.827Z,-0.70
2019-01-30T08:07:31.802Z,-0.60
2019-01-30T08:10:19.773Z,-0.60
2019-01-30T08:13:07.748Z,-0.60
2019-01-30T08:15:55.779Z,-0.60
2019-01-30T08:18:43.737Z,-0.60
2019-01-30T08:21:51.131Z,-0.50
2019-01-30T08:24:32.499Z,-0.50
2019-01-30T08:27:13.960Z,-0.50
2019-01-30T08:29:55.751Z,-0.50
2019-01-30T08:32:37.308Z,-0.40
2019-01-30T08:42:26.182Z,-0.30
2019-01-30T08:45:08.099Z,-0.30
2019-01-30T08:47:50.009Z,-0.40
2019-01-30T08:50:31.678Z,-0.30
2019-01-30T08:53:13.087Z,-0.20
2019-01-30T08:55:55.241Z,-0.20
2019-01-30T08:58:37.278Z,-0.20
2019-01-30T09:01:07.284Z,-0.20
2019-01-30T09:03:56.272Z,-0.20
2019-01-30T09:06:45.163Z,-0.10
2019-01-30T09:09:34.245Z,-0.10
2019-01-30T09:12:23.455Z,0.00
2019-01-30T09:14:53.219Z,0.00
2019-01-30T09:17:42.240Z,0.00
2019-01-30T09:20:30.523Z,0.00
2019-01-30T09:23:12.442Z,0.00
2019-01-30T09:25:54.313Z,0.00
2019-01-30T09:28:36.046Z,-0.10
2019-01-30T09:31:04.800Z,-0.10
2019-01-30T09:33:52.849Z,-0.10
2019-01-30T09:36:40.818Z,-0.20
2019-01-30T09:39:28.927Z,-0.10
2019-01-30T09:42:16.960Z,-0.10
2019-01-30T09:45:05.063Z,-0.10
2019-01-30T09:47:53.097Z,-0.10
2019-01-30T09:50:42.006Z,-0.10
2019-01-30T09:53:30.923Z,0.00
2019-01-30T09:56:39.260Z,-0.10
2019-01-30T09:59:28.312Z,-0.20
2019-01-30T10:02:17.254Z,-0.10
2019-01-30T10:04:46.122Z,0.00
2019-01-30T10:07:34.105Z,0.10
2019-01-30T10:10:22.554Z,0.20
2019-01-30T10:13:10.619Z,0.30
2019-01-30T10:15:58.805Z,0.30
2019-01-30T10:18:48.377Z,0.30
2019-01-30T10:22:20.503Z,0.30
2019-01-30T10:25:02.188Z,0.30
2019-01-30T10:28:03.434Z,0.40
2019-01-30T10:30:45.706Z,0.40
2019-01-30T10:33:53.615Z,0.50
2019-01-30T10:36:35.275Z,0.50
2019-01-30T10:39:17.030Z,0.50
2019-01-30T10:41:59.012Z,0.40
2019-01-30T10:48:00.378Z,0.50
2019-01-30T10:50:41.554Z,0.50
2019-01-30T10:53:23.406Z,0.40
2019-01-30T10:56:05.128Z,0.50
2019-01-30T10:58:46.615Z,0.50
2019-01-30T11:01:28.394Z,0.60
2019-01-30T11:04:10.219Z,0.60
2019-01-30T11:06:52.212Z,0.50
2019-01-30T11:09:33.852Z,0.60
2019-01-30T11:12:15.407Z,0.60
2019-01-30T11:14:57.094Z,0.60
2019-01-30T11:20:22.020Z,0.40
2019-01-30T11:23:01.966Z,0.40
2019-01-30T11:25:49.979Z,0.30
2019-01-30T11:28:38.170Z,0.40
2019-01-30T11:31:26.239Z,0.40
2019-01-30T11:33:55.163Z,0.40
2019-01-30T11:36:43.102Z,0.40
2019-01-30T11:39:31.048Z,0.40
2019-01-30T11:42:19.053Z,0.40
2019-01-30T11:45:08.627Z,0.50
2019-01-30T11:47:56.703Z,0.50
2019-01-30T11:50:44.694Z,0.60
2019-01-30T11:53:32.750Z,0.50
2019-01-30T12:00:55.670Z,0.60
2019-01-30T12:03:37.362Z,0.50
2019-01-30T12:06:18.842Z,0.60
2019-01-30T12:09:00.368Z,0.60
2019-01-30T12:11:42.473Z,0.70
2019-01-30T12:14:23.807Z,0.70
2019-01-30T12:20:07.245Z,0.60
2019-01-30T12:22:48.500Z,0.60
2019-01-30T12:25:30.444Z,0.70
2019-01-30T12:28:12.502Z,0.70
2019-01-30T12:30:54.194Z,0.80
2019-01-30T12:33:36.047Z,0.80
2019-01-30T12:36:18.027Z,0.90
2019-01-30T12:38:59.398Z,0.80
2019-01-30T12:41:40.768Z,0.80
2019-01-30T12:47:06.458Z,0.80
2019-01-30T12:49:47.634Z,0.90
2019-01-30T12:52:29.550Z,0.90
2019-01-30T12:55:10.859Z,0.90
2019-01-30T12:57:52.753Z,0.80
2019-01-30T13:00:34.220Z,0.90
2019-01-30T13:03:15.910Z,0.90
2019-01-30T13:05:57.378Z,1.00
2019-01-30T13:08:39.348Z,1.10
2019-01-30T13:11:20.577Z,1.10
2019-01-30T13:14:02.289Z,1.20
2019-01-30T13:16:43.659Z,1.10
2019-01-30T13:19:26.280Z,1.10
2019-01-30T13:22:07.513Z,1.10
2019-01-30T13:24:49.086Z,1.10
2019-01-30T13:27:31.740Z,1.10
2019-01-30T13:30:19.950Z,1.20
2019-01-30T13:33:09.234Z,1.30
2019-01-30T13:35:58.132Z,1.30
2019-01-30T13:38:47.030Z,1.40
2019-01-30T13:41:35.983Z,1.30
2019-01-30T13:44:24.979Z,1.30
2019-01-30T13:47:13.953Z,1.30
2019-01-30T13:49:43.686Z,1.40
2019-01-30T13:52:32.615Z,1.40
2019-01-30T13:55:22.016Z,1.40
2019-01-30T13:58:11.401Z,1.30
2019-01-30T14:01:00.330Z,1.30
2019-01-30T14:03:49.358Z,1.30
2019-01-30T14:06:40.286Z,1.40
2019-01-30T14:10:08.018Z,1.40
2019-01-30T14:12:57.048Z,1.20
2019-01-30T14:15:46.117Z,1.20
2019-01-30T14:18:35.200Z,1.10
2019-01-30T14:21:24.281Z,1.10
2019-01-30T14:24:13.285Z,1.10
2019-01-30T14:27:02.272Z,1.10
2019-01-30T14:29:58.136Z,1.10
2019-01-30T14:32:41.368Z,1.10
2019-01-30T14:35:30.968Z,1.10
2019-01-30T14:38:20.052Z,1.00
2019-01-30T14:44:08.770Z,1.00
2019-01-30T14:47:17.379Z,0.90
2019-01-30T14:50:26.691Z,0.90
2019-01-30T14:53:15.755Z,0.90
2019-01-30T14:56:24.146Z,0.90
2019-01-30T14:59:32.437Z,0.90
2019-01-30T15:02:21.521Z,0.90
2019-01-30T15:05:31.072Z,0.90
2019-01-30T15:08:39.371Z,0.90
2019-01-30T15:11:28.510Z,0.90
2019-01-30T15:14:17.547Z,0.90
2019-01-30T15:17:06.602Z,0.90
2019-01-30T15:19:57.486Z,0.90
2019-01-30T15:22:46.427Z,0.90
2019-01-30T15:25:29.431Z,0.80
2019-01-30T15:28:18.623Z,0.90
2019-01-30T15:31:07.622Z,0.90
2019-01-30T15:33:56.587Z,0.90
2019-01-30T15:36:45.461Z,0.90
2019-01-30T15:39:34.524Z,0.90
2019-01-30T15:42:23.404Z,0.90
2019-01-30T15:45:33.029Z,0.90
2019-01-30T15:48:22.025Z,0.90
2019-01-30T15:51:11.074Z,0.90
2019-01-30T15:53:59.995Z,0.90
2019-01-30T15:56:50.548Z,0.90
2019-01-30T15:59:39.582Z,0.90
2019-01-30T16:02:09.434Z,0.90
2019-01-30T16:04:39.215Z,0.90
2019-01-30T16:07:28.574Z,0.90
2019-01-30T16:10:17.625Z,0.90
2019-01-30T16:13:06.717Z,0.90
2019-01-30T16:16:16.465Z,1.00
2019-01-30T16:19:05.391Z,0.90
2019-01-30T16:21:54.316Z,0.90
2019-01-30T16:24:56.585Z,0.90
2019-01-30T16:27:45.663Z,0.90
2019-01-30T16:30:34.640Z,0.90
2019-01-30T16:33:23.708Z,0.90
2019-01-30T16:36:12.679Z,0.90
2019-01-30T16:39:01.614Z,0.80
2019-01-30T16:41:52.256Z,0.80
2019-01-30T16:44:41.187Z,0.70
2019-01-30T16:47:31.734Z,0.70
2019-01-30T16:50:20.923Z,0.70
2019-01-30T16:53:10.206Z,0.70
2019-01-30T16:56:00.703Z,0.70
2019-01-30T16:58:51.394Z,0.60
2019-01-30T17:01:42.159Z,0.60
2019-01-30T17:04:32.624Z,0.60
2019-01-30T17:07:23.150Z,0.60
2019-01-30T17:10:32.755Z,0.60
2019-01-30T17:13:21.116Z,0.50
2019-01-30T17:16:09.178Z,0.50
2019-01-30T17:18:58.923Z,0.40
2019-01-30T17:21:48.626Z,0.40
2019-01-30T17:24:36.598Z,0.40
2019-01-30T17:27:41.039Z,0.40
2019-01-30T17:30:22.275Z,0.40
2019-01-30T17:33:04.356Z,0.40
2019-01-30T17:35:46.516Z,0.40
2019-01-30T17:38:27.981Z,0.40
2019-01-30T17:41:09.669Z,0.40
2019-01-30T17:43:51.680Z,0.40
2019-01-30T17:46:33.687Z,0.30
2019-01-30T17:49:15.330Z,0.30
2019-01-30T17:51:56.893Z,0.30
2019-01-30T17:54:41.321Z,0.30
2019-01-30T17:57:10.343Z,0.30
2019-01-30T17:59:58.502Z,0.30
2019-01-30T18:03:05.879Z,0.30
2019-01-30T18:05:54.124Z,0.30
2019-01-30T18:08:43.752Z,0.30
2019-01-30T18:11:33.383Z,0.30
2019-01-30T18:14:21.486Z,0.20
2019-01-30T18:17:09.625Z,0.20
2019-01-30T18:19:59.230Z,0.30
2019-01-30T18:22:48.806Z,0.20
2019-01-30T18:25:30.166Z,0.20
2019-01-30T18:28:13.078Z,0.20
2019-01-30T18:31:02.039Z,0.20
2019-01-30T18:33:53.856Z,0.20
2019-01-30T18:37:01.600Z,0.10
2019-01-30T18:39:52.742Z,0.40
2019-01-30T18:42:42.229Z,0.10
2019-01-30T18:45:31.627Z,0.10
2019-01-30T18:48:20.872Z,0.10
2019-01-30T18:51:10.029Z,0.10
2019-01-30T18:54:00.628Z,0.10
2019-01-30T18:56:49.650Z,0.10
2019-01-30T18:59:56.721Z,0.10
2019-01-30T19:09:56.398Z,0.10
2019-01-30T19:13:04.451Z,0.10
2019-01-30T19:19:26.180Z,0.10
2019-01-30T19:26:41.300Z,0.10
2019-01-30T19:29:23.885Z,0.10
2019-01-30T19:32:12.913Z,0.10
2019-01-30T19:34:42.555Z,0.10
2019-01-30T19:37:31.442Z,0.10
2019-01-30T19:40:20.536Z,0.10
2019-01-30T19:43:27.260Z,0.10
2019-01-30T19:46:16.238Z,0.10
2019-01-30T19:49:05.207Z,0.10
2019-01-30T19:51:54.152Z,0.10
2019-01-30T19:54:43.172Z,0.10
2019-01-30T19:57:32.118Z,0.10
2019-01-30T20:00:22.507Z,0.10
2019-01-30T20:03:32.150Z,0.10
2019-01-30T20:06:21.123Z,0.10
2019-01-30T20:12:11.076Z,0.10
2019-01-30T20:18:00.607Z,0.10
2019-01-30T20:34:21.567Z,0.20
2019-01-30T20:37:10.639Z,0.20
2019-01-30T20:39:59.706Z,0.20
2019-01-30T20:43:07.977Z,0.20
2019-01-30T20:45:56.923Z,0.30
2019-01-30T20:48:51.684Z,0.30
2019-01-30T20:51:57.617Z,0.30
2019-01-30T20:54:46.532Z,0.30
2019-01-30T20:57:35.658Z,0.30
2019-01-30T21:00:45.697Z,0.30
2019-01-30T21:03:34.650Z,0.40
2019-01-30T21:06:23.611Z,0.40
2019-01-30T21:09:12.456Z,0.40
2019-01-30T21:12:01.504Z,0.40
2019-01-30T21:14:50.410Z,0.40
2019-01-30T21:18:22.176Z,0.40
2019-01-30T21:21:10.207Z,0.40
2019-01-30T21:23:58.231Z,0.40
2019-01-30T21:26:59.688Z,0.40
2019-01-30T21:29:41.965Z,0.40
2019-01-30T21:32:23.465Z,0.40
2019-01-30T21:35:05.524Z,0.40
2019-01-30T21:37:49.004Z,0.40
2019-01-30T21:40:30.795Z,0.40
2019-01-30T21:43:12.635Z,0.40
2019-01-30T21:45:54.422Z,0.40
2019-01-30T21:48:23.128Z,0.40
2019-01-30T21:51:11.136Z,0.50
2019-01-30T21:57:00.979Z,0.50
2019-01-30T21:59:49.872Z,0.50
2019-01-30T22:02:38.866Z,0.50
2019-01-30T22:05:27.855Z,0.50
2019-01-30T22:08:16.892Z,0.60
2019-01-30T22:11:05.825Z,0.50
2019-01-30T22:14:40.623Z,0.60
2019-01-30T22:17:29.579Z,0.60
2019-01-30T22:23:47.118Z,0.50
2019-01-30T22:26:55.930Z,0.50
2019-01-30T22:29:44.888Z,0.50
2019-01-30T22:32:33.989Z,0.50
2019-01-30T22:35:23.075Z,0.50
2019-01-30T22:38:13.790Z,0.50
2019-01-30T22:41:02.775Z,0.50
2019-01-30T22:43:51.697Z,0.40
2019-01-30T22:46:40.641Z,0.40
2019-01-30T22:49:29.623Z,0.50
2019-01-30T22:55:29.930Z,0.40
2019-01-30T22:58:18.963Z,0.40
2019-01-30T23:01:27.371Z,0.40
2019-01-30T23:04:37.027Z,0.40
2019-01-30T23:07:45.211Z,0.50
2019-01-30T23:10:53.579Z,0.40
2019-01-30T23:14:03.238Z,0.50
2019-01-30T23:20:27.135Z,0.40
2019-01-30T23:23:53.458Z,0.30
2019-01-30T23:26:37.995Z,0.40
2019-01-30T23:29:46.235Z,0.40
2019-01-30T23:32:54.519Z,0.40
2019-01-30T23:36:02.770Z,0.40
2019-01-30T23:39:10.983Z,0.40
2019-01-30T23:42:19.208Z,0.50
2019-01-30T23:45:27.444Z,0.50
2019-01-30T23:48:35.619Z,0.50
2019-01-30T23:51:45.200Z,0.50
2019-01-30T23:54:54.884Z,0.50
2019-01-30T23:58:03.159Z,0.50
